Time;durP1;ratioP1;P1;durP2;ratioP2;P2;SDS_P1;SDS_P2;PMS_P1;PMS_P2;Temp;Humidity;BMP_temperature;BMP_pressure;BME280_temperature;BME280_humidity;BME280_pressure;Samples;Min_cycle;Max_cycle;Signal;HPM_P1;HPM_P2
2023/01/09 00:01:23;;;;;;;8.90;4.78;;;;;;;;;;5044422;28;20045;-68
2023/01/09 00:03:50;;;;;;;12.40;4.50;;;;;;;;;;5045431;28;20053;-68
2023/01/09 00:06:16;;;;;;;8.73;3.70;;;;;;;;;;5043201;28;20037;-68
2023/01/09 00:08:43;;;;;;;14.25;3.65;;;;;;;;;;5043224;28;20063;-68
2023/01/09 00:11:09;;;;;;;12.68;4.18;;;;;;;;;;5047846;28;20040;-69
2023/01/09 00:13:36;;;;;;;16.77;3.88;;;;;;;;;;5048392;28;20063;-68
2023/01/09 00:16:04;;;;;;;9.32;3.78;;;;;;;;;;5048033;28;20044;-68
2023/01/09 00:18:31;;;;;;;10.93;4.20;;;;;;;;;;5048080;28;20462;-68
2023/01/09 00:21:05;;;;;;;15.60;3.95;;;;;;;;;;5052536;28;20616;-70
2023/01/09 00:23:31;;;;;;;;;;;;;;;;;;5051177;28;20033;-69
2023/01/09 00:26:08;;;;;;;10.93;3.40;;;;;;;;;;5048583;28;20031;-68
2023/01/09 00:28:35;;;;;;;9.30;3.60;;;;;;;;;;5048982;28;20049;-68
2023/01/09 00:31:03;;;;;;;14.85;4.05;;;;;;;;;;5052557;28;20063;-67
2023/01/09 00:33:32;;;;;;;13.07;3.25;;;;;;;;;;5046263;28;20033;-67
2023/01/09 00:35:59;;;;;;;9.85;3.78;;;;;;;;;;5061660;28;20033;-69
2023/01/09 00:38:26;;;;;;;10.20;3.88;;;;;;;;;;5050972;28;20044;-69
2023/01/09 00:40:54;;;;;;;10.82;3.70;;;;;;;;;;5049506;28;20643;-67
2023/01/09 00:43:21;;;;;;;14.88;3.65;;;;;;;;;;5047002;28;20136;-67
2023/01/09 00:45:48;;;;;;;9.65;3.75;;;;;;;;;;5046381;28;20146;-69
2023/01/09 00:48:16;;;;;;;11.13;3.47;;;;;;;;;;5048232;28;20049;-67
2023/01/09 00:50:43;;;;;;;9.75;3.55;;;;;;;;;;5047359;28;20088;-68
2023/01/09 00:53:13;;;;;;;10.35;3.42;;;;;;;;;;5047928;28;20037;-68
2023/01/09 00:55:40;;;;;;;9.10;4.03;;;;;;;;;;5046976;28;20040;-68
2023/01/09 00:58:06;;;;;;;11.60;3.45;;;;;;;;;;5045662;28;20163;-67
2023/01/09 01:00:33;;;;;;;13.63;4.28;;;;;;;;;;5047335;28;20033;-68
2023/01/09 01:03:00;;;;;;;7.85;3.28;;;;;;;;;;5048379;28;20056;-66
2023/01/09 01:08:12;;;;;;;9.20;3.55;;;;;;;;;;5049350;28;20036;-66
2023/01/09 01:10:39;;;;;;;11.05;4.18;;;;;;;;;;5045163;28;20627;-67
2023/01/09 01:13:05;;;;;;;10.30;3.60;;;;;;;;;;5061843;28;20120;-68
2023/01/09 01:15:32;;;;;;;15.40;4.03;;;;;;;;;;5045493;28;20033;-67
2023/01/09 01:17:59;;;;;;;8.40;3.67;;;;;;;;;;5032664;28;20119;-68
2023/01/09 01:20:26;;;;;;;13.30;4.15;;;;;;;;;;5037231;28;20037;-68
2023/01/09 01:22:52;;;;;;;8.25;3.30;;;;;;;;;;5047447;28;20898;-66
2023/01/09 01:25:19;;;;;;;11.23;3.55;;;;;;;;;;5047375;28;20565;-66
2023/01/09 01:27:46;;;;;;;14.43;3.58;;;;;;;;;;5048206;28;20037;-69
2023/01/09 01:30:14;;;;;;;11.27;3.55;;;;;;;;;;5047813;28;20065;-68
2023/01/09 01:32:40;;;;;;;9.77;5.72;;;;;;;;;;5046866;28;20060;-68
2023/01/09 01:35:08;;;;;;;15.48;5.00;;;;;;;;;;5045812;28;20045;-69
2023/01/09 01:37:35;;;;;;;11.95;4.28;;;;;;;;;;5046740;28;20055;-67
2023/01/09 01:40:01;;;;;;;10.70;4.20;;;;;;;;;;5047357;28;20041;-68
2023/01/09 01:42:28;;;;;;;13.60;4.18;;;;;;;;;;5044081;28;20044;-66
2023/01/09 01:45:04;;;;;;;11.95;4.18;;;;;;;;;;5028221;28;20060;-67
2023/01/09 01:47:51;;;;;;;11.60;4.05;;;;;;;;;;5024670;28;20216;-65
2023/01/09 01:50:25;;;;;;;10.95;4.90;;;;;;;;;;5044631;28;20056;-68
2023/01/09 01:53:11;;;;;;;11.05;4.70;;;;;;;;;;5048041;28;20048;-67
2023/01/09 01:55:41;;;;;;;13.57;4.03;;;;;;;;;;5039354;28;20685;-69
2023/01/09 01:58:09;;;;;;;8.70;3.90;;;;;;;;;;5048100;28;20051;-68
2023/01/09 02:00:38;;;;;;;14.55;4.25;;;;;;;;;;5052267;28;20033;-68
2023/01/09 02:03:26;;;;;;;11.10;5.47;;;;;;;;;;5029276;28;20045;-66
2023/01/09 02:05:53;;;;;;;23.30;10.10;;;;;;;;;;5035429;28;20112;-69
2023/01/09 02:08:20;;;;;;;12.23;5.13;;;;;;;;;;5058982;28;20055;-67
2023/01/09 02:10:47;;;;;;;13.63;5.65;;;;;;;;;;5042922;28;20037;-67
2023/01/09 02:13:14;;;;;;;12.27;5.00;;;;;;;;;;5033901;28;20105;-67
2023/01/09 02:15:40;;;;;;;12.27;5.40;;;;;;;;;;5024396;28;20037;-66
2023/01/09 02:18:25;;;;;;;12.27;4.93;;;;;;;;;;5025000;28;20041;-67
2023/01/09 02:20:54;;;;;;;9.13;4.30;;;;;;;;;;5021642;28;20041;-68
2023/01/09 02:23:33;;;;;;;8.80;4.03;;;;;;;;;;5020422;28;20037;-66
2023/01/09 02:26:09;;;;;;;12.85;4.20;;;;;;;;;;5020532;28;20513;-71
2023/01/09 02:28:54;;;;;;;14.95;3.70;;;;;;;;;;5023386;28;20045;-68
2023/01/09 02:31:32;;;;;;;16.35;6.30;;;;;;;;;;5022562;28;20068;-68
2023/01/09 02:34:01;;;;;;;21.27;10.02;;;;;;;;;;5024717;28;20033;-68
2023/01/09 02:36:50;;;;;;;16.70;8.40;;;;;;;;;;5027279;28;20110;-69
2023/01/09 02:39:22;;;;;;;10.10;5.30;;;;;;;;;;5034245;28;20033;-68
2023/01/09 02:41:49;;;;;;;14.43;6.13;;;;;;;;;;5035853;28;20051;-68
2023/01/09 02:44:15;;;;;;;12.95;5.35;;;;;;;;;;5034327;28;20150;-68
2023/01/09 02:46:42;;;;;;;11.02;5.55;;;;;;;;;;5031473;28;20042;-68
2023/01/09 02:49:09;;;;;;;11.13;5.05;;;;;;;;;;5033916;28;20143;-68
2023/01/09 02:51:38;;;;;;;12.52;6.18;;;;;;;;;;5033866;28;20401;-68
2023/01/09 02:54:11;;;;;;;14.50;5.65;;;;;;;;;;5028945;28;20164;-65
2023/01/09 02:56:40;;;;;;;11.65;6.18;;;;;;;;;;5027531;28;20038;-67
2023/01/09 02:59:06;;;;;;;14.23;6.03;;;;;;;;;;5030172;28;20128;-68
2023/01/09 03:01:45;;;;;;;15.60;5.10;;;;;;;;;;5030155;28;20511;-68
2023/01/09 03:04:20;;;;;;;10.18;5.22;;;;;;;;;;5043510;28;20164;-66
2023/01/09 03:06:47;;;;;;;11.13;5.60;;;;;;;;;;5029649;28;20049;-66
2023/01/09 03:09:16;;;;;;;10.65;5.25;;;;;;;;;;5032110;28;20565;-69
2023/01/09 03:11:46;;;;;;;10.65;4.63;;;;;;;;;;5046426;28;20108;-69
2023/01/09 03:14:16;;;;;;;13.07;5.53;;;;;;;;;;5032219;28;20041;-70
2023/01/09 03:16:45;;;;;;;16.95;4.93;;;;;;;;;;5027453;28;20037;-67
2023/01/09 03:19:15;;;;;;;14.20;5.20;;;;;;;;;;5032353;28;20061;-70
2023/01/09 03:21:42;;;;;;;14.35;5.00;;;;;;;;;;5037715;28;21206;-70
2023/01/09 03:24:09;;;;;;;10.30;4.53;;;;;;;;;;5030299;28;20898;-65
2023/01/09 03:26:36;;;;;;;10.25;4.32;;;;;;;;;;5035867;28;20041;-65
2023/01/09 03:29:02;;;;;;;12.45;4.65;;;;;;;;;;5032636;28;20164;-68
2023/01/09 03:31:29;;;;;;;9.02;4.47;;;;;;;;;;5032736;28;20072;-68
2023/01/09 03:33:56;;;;;;;9.80;4.10;;;;;;;;;;5035683;28;20042;-68
2023/01/09 03:36:23;;;;;;;10.60;4.75;;;;;;;;;;5045756;28;20087;-68
2023/01/09 03:38:50;;;;;;;10.13;4.68;;;;;;;;;;5034039;28;20045;-68
2023/01/09 03:41:18;;;;;;;8.45;4.28;;;;;;;;;;5032613;28;20065;-69
2023/01/09 03:43:44;;;;;;;15.75;4.10;;;;;;;;;;5036375;28;20450;-68
2023/01/09 03:46:11;;;;;;;13.77;4.20;;;;;;;;;;5061015;28;20049;-69
2023/01/09 03:48:38;;;;;;;13.98;4.65;;;;;;;;;;5061711;28;20048;-69
2023/01/09 03:51:04;;;;;;;12.10;4.28;;;;;;;;;;5053411;28;20044;-69
2023/01/09 03:53:31;;;;;;;10.85;3.92;;;;;;;;;;5031394;28;20037;-70
2023/01/09 03:55:58;;;;;;;10.95;4.13;;;;;;;;;;5067276;28;20032;-70
2023/01/09 03:58:25;;;;;;;11.00;4.05;;;;;;;;;;5055700;28;20049;-68
2023/01/09 04:00:56;;;;;;;9.70;3.60;;;;;;;;;;5055982;28;20094;-70
2023/01/09 04:03:23;;;;;;;11.35;3.65;;;;;;;;;;5057797;28;20044;-69
2023/01/09 04:05:50;;;;;;;15.40;4.18;;;;;;;;;;5044596;28;20047;-70
2023/01/09 04:08:17;;;;;;;9.38;3.65;;;;;;;;;;5054332;28;20523;-68
2023/01/09 04:10:44;;;;;;;12.07;4.13;;;;;;;;;;5057408;28;20130;-68
2023/01/09 04:13:11;;;;;;;16.98;4.47;;;;;;;;;;5057625;28;20620;-70
2023/01/09 04:15:37;;;;;;;12.80;5.03;;;;;;;;;;5055721;28;20036;-68
2023/01/09 04:18:04;;;;;;;12.82;5.28;;;;;;;;;;5072935;28;20048;-68
2023/01/09 04:20:31;;;;;;;16.38;5.88;;;;;;;;;;5056023;28;20037;-69
2023/01/09 04:22:58;;;;;;;9.07;4.55;;;;;;;;;;5059085;28;20037;-68
2023/01/09 04:25:25;;;;;;;10.88;5.15;;;;;;;;;;5052711;28;20045;-69
2023/01/09 04:27:52;;;;;;;10.57;4.47;;;;;;;;;;5055188;28;20083;-67
2023/01/09 04:30:19;;;;;;;11.27;4.40;;;;;;;;;;5055358;28;20040;-67
2023/01/09 04:32:46;;;;;;;9.85;4.43;;;;;;;;;;5057132;28;20062;-68
2023/01/09 04:35:12;;;;;;;8.43;3.30;;;;;;;;;;5053762;28;20044;-69
2023/01/09 04:37:39;;;;;;;9.35;3.33;;;;;;;;;;5057788;28;20045;-68
2023/01/09 04:40:09;;;;;;;9.93;4.05;;;;;;;;;;5042883;28;20062;-70
2023/01/09 04:42:36;;;;;;;8.60;4.07;;;;;;;;;;5030035;28;20541;-69
2023/01/09 04:45:03;;;;;;;13.18;3.67;;;;;;;;;;5045690;28;20055;-69
2023/01/09 04:47:30;;;;;;;7.78;3.40;;;;;;;;;;5053952;28;20142;-69
2023/01/09 04:49:57;;;;;;;6.95;3.05;;;;;;;;;;5058166;28;20599;-71
2023/01/09 04:52:23;;;;;;;11.75;3.53;;;;;;;;;;5055853;28;20032;-68
2023/01/09 04:54:50;;;;;;;8.93;3.35;;;;;;;;;;5054691;28;20044;-69
2023/01/09 04:57:17;;;;;;;9.00;3.85;;;;;;;;;;5054872;28;20472;-69
2023/01/09 04:59:44;;;;;;;12.70;3.38;;;;;;;;;;5046272;28;20040;-70
2023/01/09 05:02:10;;;;;;;13.00;3.83;;;;;;;;;;5061303;28;20041;-68
2023/01/09 05:04:39;;;;;;;15.30;3.45;;;;;;;;;;5038601;28;20558;-68
2023/01/09 05:07:05;;;;;;;8.00;3.25;;;;;;;;;;5052516;28;20040;-70
2023/01/09 05:09:32;;;;;;;8.30;3.10;;;;;;;;;;5064998;28;20094;-70
2023/01/09 05:11:59;;;;;;;7.07;3.22;;;;;;;;;;5037135;28;20040;-70
2023/01/09 05:14:25;;;;;;;7.75;3.00;;;;;;;;;;5061939;28;20316;-69
2023/01/09 05:16:52;;;;;;;7.10;3.35;;;;;;;;;;5048049;28;20091;-69
2023/01/09 05:19:19;;;;;;;8.40;3.58;;;;;;;;;;5046149;28;20088;-71
2023/01/09 05:21:46;;;;;;;8.80;2.95;;;;;;;;;;5044595;28;20044;-69
2023/01/09 05:24:12;;;;;;;12.02;4.07;;;;;;;;;;5048294;28;20076;-68
2023/01/09 05:26:39;;;;;;;10.07;3.47;;;;;;;;;;5044291;28;20049;-68
2023/01/09 05:29:06;;;;;;;8.82;3.28;;;;;;;;;;5053501;28;20058;-68
2023/01/09 05:31:32;;;;;;;11.13;3.92;;;;;;;;;;5033119;28;20365;-69
2023/01/09 05:33:59;;;;;;;10.80;3.70;;;;;;;;;;5039175;28;20091;-68
2023/01/09 05:36:27;;;;;;;11.95;4.10;;;;;;;;;;5044410;28;20056;-69
2023/01/09 05:38:57;;;;;;;8.15;3.72;;;;;;;;;;5047752;28;20188;-69
2023/01/09 05:41:25;;;;;;;7.45;3.40;;;;;;;;;;5047401;28;20036;-70
2023/01/09 05:43:52;;;;;;;8.57;3.50;;;;;;;;;;5062692;28;20587;-68
2023/01/09 05:46:19;;;;;;;10.07;3.70;;;;;;;;;;5060877;28;20053;-69
2023/01/09 05:48:46;;;;;;;9.02;4.20;;;;;;;;;;5061836;28;20126;-70
2023/01/09 05:51:13;;;;;;;12.43;3.78;;;;;;;;;;5060924;28;20048;-69
2023/01/09 05:53:40;;;;;;;8.55;4.03;;;;;;;;;;5026256;28;20038;-68
2023/01/09 05:56:07;;;;;;;7.65;3.72;;;;;;;;;;5044122;28;20591;-68
2023/01/09 05:58:33;;;;;;;10.90;3.47;;;;;;;;;;5046436;28;20041;-67
2023/01/09 06:01:00;;;;;;;7.30;3.38;;;;;;;;;;5061261;28;20032;-67
2023/01/09 06:03:27;;;;;;;8.85;4.00;;;;;;;;;;5058157;28;20032;-68
2023/01/09 06:05:53;;;;;;;9.50;3.38;;;;;;;;;;5059470;28;20041;-68
2023/01/09 06:08:20;;;;;;;10.18;3.85;;;;;;;;;;5060129;28;20774;-69
2023/01/09 06:10:47;;;;;;;8.77;3.67;;;;;;;;;;5060625;28;20067;-69
2023/01/09 06:13:13;;;;;;;6.57;3.63;;;;;;;;;;5061330;28;20036;-68
2023/01/09 06:15:40;;;;;;;15.18;3.90;;;;;;;;;;5043374;28;20053;-68
2023/01/09 06:18:07;;;;;;;12.77;4.35;;;;;;;;;;5041891;28;20507;-68
2023/01/09 06:20:35;;;;;;;8.25;3.88;;;;;;;;;;5025535;28;20029;-67
2023/01/09 06:23:01;;;;;;;9.25;3.83;;;;;;;;;;5021155;28;20051;-67
2023/01/09 06:25:28;;;;;;;8.43;3.72;;;;;;;;;;5026299;28;20036;-67
2023/01/09 06:27:55;;;;;;;12.65;4.13;;;;;;;;;;5030107;28;20047;-67
2023/01/09 06:30:21;;;;;;;10.82;3.80;;;;;;;;;;5025700;28;20132;-68
2023/01/09 06:32:51;;;;;;;8.27;3.97;;;;;;;;;;5040680;28;20052;-69
2023/01/09 06:35:19;;;;;;;9.10;3.55;;;;;;;;;;5027971;28;20029;-68
2023/01/09 06:37:47;;;;;;;9.45;3.88;;;;;;;;;;5025530;28;20104;-67
2023/01/09 06:40:13;;;;;;;7.28;3.67;;;;;;;;;;5026484;28;20045;-70
2023/01/09 06:42:43;;;;;;;9.07;3.33;;;;;;;;;;5024882;28;20125;-67
2023/01/09 06:45:10;;;;;;;8.18;3.72;;;;;;;;;;5025377;28;20046;-67
2023/01/09 06:47:38;;;;;;;10.40;3.78;;;;;;;;;;5025493;28;20045;-67
2023/01/09 06:50:05;;;;;;;9.15;3.55;;;;;;;;;;5026475;28;20259;-68
2023/01/09 06:52:31;;;;;;;8.30;3.58;;;;;;;;;;5026407;28;20735;-69
2023/01/09 06:54:58;;;;;;;11.63;4.28;;;;;;;;;;5024084;28;20068;-68
2023/01/09 06:57:26;;;;;;;16.90;8.50;;;;;;;;;;5025627;28;20069;-67
2023/01/09 06:59:53;;;;;;;9.70;4.15;;;;;;;;;;5025499;28;20072;-67
2023/01/09 07:02:20;;;;;;;9.30;3.67;;;;;;;;;;5027232;28;20052;-70
2023/01/09 07:04:47;;;;;;;8.15;3.83;;;;;;;;;;5026178;28;20983;-70
2023/01/09 07:07:14;;;;;;;7.07;3.45;;;;;;;;;;5026007;28;20204;-69
2023/01/09 07:09:40;;;;;;;13.02;3.40;;;;;;;;;;5037270;28;20049;-68
2023/01/09 07:12:07;;;;;;;9.05;3.58;;;;;;;;;;5022731;28;20045;-70
2023/01/09 07:14:34;;;;;;;5.97;2.47;;;;;;;;;;5025563;28;20069;-67
2023/01/09 07:17:00;;;;;;;9.70;3.33;;;;;;;;;;5025605;28;20095;-67
2023/01/09 07:19:27;;;;;;;6.57;3.10;;;;;;;;;;5024418;28;20128;-68
2023/01/09 07:21:54;;;;;;;6.70;2.75;;;;;;;;;;5025249;28;20040;-68
2023/01/09 07:24:21;;;;;;;5.80;2.55;;;;;;;;;;5031739;28;20478;-69
2023/01/09 07:26:47;;;;;;;6.00;2.35;;;;;;;;;;5041289;28;21698;-68
2023/01/09 07:29:14;;;;;;;6.03;2.70;;;;;;;;;;5025762;28;20057;-68
2023/01/09 07:31:40;;;;;;;6.57;2.70;;;;;;;;;;5023568;28;20041;-67
2023/01/09 07:34:07;;;;;;;5.03;2.13;;;;;;;;;;5023762;28;20057;-68
2023/01/09 07:36:34;;;;;;;7.03;2.42;;;;;;;;;;5023893;28;20986;-69
2023/01/09 07:39:00;;;;;;;7.78;2.30;;;;;;;;;;5026948;28;20438;-68
2023/01/09 07:41:27;;;;;;;7.20;2.40;;;;;;;;;;5025138;28;20065;-69
2023/01/09 07:43:54;;;;;;;8.38;2.10;;;;;;;;;;5024463;28;20116;-69
2023/01/09 07:46:20;;;;;;;5.55;2.30;;;;;;;;;;5025639;28;20064;-69
2023/01/09 07:48:48;;;;;;;4.60;2.00;;;;;;;;;;5026247;28;20045;-70
2023/01/09 07:51:14;;;;;;;5.75;1.92;;;;;;;;;;5023793;28;20033;-69
2023/01/09 07:53:41;;;;;;;5.15;1.85;;;;;;;;;;5027679;28;20048;-69
2023/01/09 07:56:08;;;;;;;3.67;1.40;;;;;;;;;;5031745;28;20501;-67
2023/01/09 07:58:34;;;;;;;3.05;1.10;;;;;;;;;;5026925;28;20077;-68
2023/01/09 08:01:01;;;;;;;3.13;1.33;;;;;;;;;;5040899;28;20044;-66
2023/01/09 08:03:27;;;;;;;6.40;1.55;;;;;;;;;;5025794;28;20029;-69
2023/01/09 08:05:54;;;;;;;6.40;1.27;;;;;;;;;;5027354;28;20029;-69
2023/01/09 08:08:22;;;;;;;2.63;1.00;;;;;;;;;;5041276;28;20041;-68
2023/01/09 08:10:49;;;;;;;3.03;0.98;;;;;;;;;;5028919;28;20037;-69
2023/01/09 08:13:15;;;;;;;3.50;1.10;;;;;;;;;;5026409;28;20452;-68
2023/01/09 08:15:42;;;;;;;4.28;1.50;;;;;;;;;;5024392;28;20046;-68
2023/01/09 08:18:10;;;;;;;3.55;1.33;;;;;;;;;;5025910;28;20041;-68
2023/01/09 08:20:36;;;;;;;2.92;0.90;;;;;;;;;;5023960;28;20072;-69
2023/01/09 08:23:03;;;;;;;3.25;1.00;;;;;;;;;;5024084;28;20101;-69
2023/01/09 08:25:30;;;;;;;5.20;0.70;;;;;;;;;;5037911;28;21720;-68
2023/01/09 08:27:56;;;;;;;1.60;0.50;;;;;;;;;;5025780;28;20064;-67
2023/01/09 08:30:23;;;;;;;2.40;0.65;;;;;;;;;;5023315;28;20049;-69
2023/01/09 08:32:50;;;;;;;2.38;0.75;;;;;;;;;;5031192;28;20048;-68
2023/01/09 08:35:17;;;;;;;2.97;0.90;;;;;;;;;;5028278;28;20078;-67
2023/01/09 08:37:44;;;;;;;4.90;0.82;;;;;;;;;;5052335;28;20033;-69
2023/01/09 08:40:12;;;;;;;1.75;0.70;;;;;;;;;;5051814;28;20375;-68
2023/01/09 08:48:09;;;;;;;3.83;1.00;;;;;;;;;;5050520;28;20451;-68
2023/01/09 08:50:35;;;;;;;4.78;1.30;;;;;;;;;;5047155;28;20036;-68
2023/01/09 08:53:04;;;;;;;3.22;1.20;;;;;;;;;;5047542;28;20137;-68
2023/01/09 08:55:31;;;;;;;4.03;1.60;;;;;;;;;;5047888;28;20470;-66
2023/01/09 08:57:57;;;;;;;3.42;1.13;;;;;;;;;;5046877;28;20039;-68
2023/01/09 09:00:24;;;;;;;9.18;1.27;;;;;;;;;;5025580;28;20037;-68
2023/01/09 09:03:11;;;;;;;3.42;0.90;;;;;;;;;;5045189;28;20045;-70
2023/01/09 09:05:37;;;;;;;3.05;1.20;;;;;;;;;;5044608;28;20032;-68
2023/01/09 09:08:05;;;;;;;4.00;1.20;;;;;;;;;;5050729;28;20040;-66
2023/01/09 09:10:32;;;;;;;8.85;1.23;;;;;;;;;;5065361;28;20088;-67
2023/01/09 09:12:59;;;;;;;3.47;1.08;;;;;;;;;;5065146;28;20088;-67
2023/01/09 09:15:26;;;;;;;3.55;1.30;;;;;;;;;;5059766;28;20039;-69
2023/01/09 09:17:57;;;;;;;4.13;1.27;;;;;;;;;;5056800;28;20072;-68
2023/01/09 09:20:25;;;;;;;3.53;1.30;;;;;;;;;;5064896;28;20052;-68
2023/01/09 09:22:52;;;;;;;3.92;1.30;;;;;;;;;;5063140;28;20036;-69
2023/01/09 09:25:19;;;;;;;6.05;1.20;;;;;;;;;;5062733;28;20549;-68
2023/01/09 09:27:46;;;;;;;3.85;1.40;;;;;;;;;;5056340;28;20073;-68
2023/01/09 09:30:13;;;;;;;3.55;1.13;;;;;;;;;;5048402;28;20226;-67
2023/01/09 09:32:40;;;;;;;3.83;1.10;;;;;;;;;;5062580;28;20044;-67
2023/01/09 09:35:08;;;;;;;3.05;1.00;;;;;;;;;;5041555;28;20079;-68
2023/01/09 09:37:35;;;;;;;2.72;0.80;;;;;;;;;;5049042;28;20486;-68
2023/01/09 09:40:01;;;;;;;4.32;1.05;;;;;;;;;;5048861;28;20465;-68
2023/01/09 09:45:19;;;;;;;1.73;0.60;;;;;;;;;;5047165;28;20174;-67
2023/01/09 09:47:58;;;;;;;4.13;0.80;;;;;;;;;;5046120;28;20052;-68
2023/01/09 09:50:28;;;;;;;3.72;0.70;;;;;;;;;;5046321;28;20127;-69
2023/01/09 09:53:01;;;;;;;4.88;0.95;;;;;;;;;;5045383;28;20062;-69
2023/01/09 09:55:30;;;;;;;6.75;0.80;;;;;;;;;;5045942;28;20082;-69
2023/01/09 09:58:00;;;;;;;2.65;0.68;;;;;;;;;;5046992;28;20036;-68
2023/01/09 10:00:26;;;;;;;2.60;0.80;;;;;;;;;;5044207;28;20524;-69
2023/01/09 10:02:57;;;;;;;2.20;0.70;;;;;;;;;;5046275;28;20048;-70
2023/01/09 10:05:28;;;;;;;1.67;0.60;;;;;;;;;;5044469;28;20033;-69
2023/01/09 10:07:57;;;;;;;2.30;0.70;;;;;;;;;;5046721;28;20036;-68
2023/01/09 10:10:44;;;;;;;2.22;0.65;;;;;;;;;;5044267;28;20094;-69
2023/01/09 10:16:02;;;;;;;1.92;0.60;;;;;;;;;;5031077;28;20520;-68
2023/01/09 10:18:32;;;;;;;2.13;0.63;;;;;;;;;;5026420;28;20044;-69
2023/01/09 10:21:28;;;;;;;1.85;0.50;;;;;;;;;;5027140;28;20029;-68
2023/01/09 10:24:20;;;;;;;1.65;0.50;;;;;;;;;;5025831;28;20711;-69
2023/01/09 10:26:50;;;;;;;2.72;0.70;;;;;;;;;;5045788;28;20631;-68
2023/01/09 10:29:36;;;;;;;2.40;0.70;;;;;;;;;;5046199;28;20160;-67
2023/01/09 10:32:31;;;;;;;3.95;0.85;;;;;;;;;;5044693;28;20175;-68
2023/01/09 10:35:17;;;;;;;2.53;0.60;;;;;;;;;;5044446;28;20033;-68
2023/01/09 10:37:47;;;;;;;1.67;0.50;;;;;;;;;;5037172;28;20037;-69
2023/01/09 10:40:29;;;;;;;2.13;0.68;;;;;;;;;;5040346;28;20033;-69
2023/01/09 10:43:07;;;;;;;2.22;0.63;;;;;;;;;;5023696;28;20532;-67
2023/01/09 10:45:40;;;;;;;1.85;0.60;;;;;;;;;;5022953;28;20467;-67
2023/01/09 10:48:14;;;;;;;1.25;0.50;;;;;;;;;;5025796;28;20045;-68
2023/01/09 10:50:44;;;;;;;1.60;0.50;;;;;;;;;;5025554;28;20076;-67
2023/01/09 10:53:27;;;;;;;1.92;0.60;;;;;;;;;;5023417;28;20037;-68
2023/01/09 10:55:55;;;;;;;1.67;0.52;;;;;;;;;;5024800;28;20114;-67
2023/01/09 10:58:23;;;;;;;1.25;0.50;;;;;;;;;;5025801;28;20068;-68
2023/01/09 11:00:50;;;;;;;1.67;0.57;;;;;;;;;;5024192;28;20064;-67
2023/01/09 11:03:19;;;;;;;2.42;0.60;;;;;;;;;;5040580;28;20121;-67
2023/01/09 11:05:56;;;;;;;1.25;0.50;;;;;;;;;;5024278;28;20127;-67
2023/01/09 11:08:41;;;;;;;2.15;0.60;;;;;;;;;;5025124;28;20041;-68
2023/01/09 11:11:08;;;;;;;1.48;0.40;;;;;;;;;;5025678;28;20041;-67
2023/01/09 11:13:37;;;;;;;1.75;0.50;;;;;;;;;;5036311;28;20060;-67
2023/01/09 11:16:07;;;;;;;1.58;0.40;;;;;;;;;;5039190;28;20062;-68
2023/01/09 11:18:37;;;;;;;2.17;0.60;;;;;;;;;;5023959;28;20045;-67
2023/01/09 11:21:15;;;;;;;1.30;0.40;;;;;;;;;;5023841;28;20038;-67
2023/01/09 11:23:41;;;;;;;1.20;0.40;;;;;;;;;;5021133;28;20040;-67
2023/01/09 11:26:20;;;;;;;0.82;0.40;;;;;;;;;;5036152;28;20037;-69
2023/01/09 11:29:04;;;;;;;0.77;0.30;;;;;;;;;;5023330;28;20034;-67
2023/01/09 11:31:31;;;;;;;1.63;0.40;;;;;;;;;;5023366;28;20137;-67
2023/01/09 11:33:58;;;;;;;3.28;0.50;;;;;;;;;;5014067;28;20442;-67
2023/01/09 11:36:24;;;;;;;1.65;0.32;;;;;;;;;;5029599;28;20033;-67
2023/01/09 11:38:55;;;;;;;1.35;0.40;;;;;;;;;;5024878;28;20403;-68
2023/01/09 11:41:23;;;;;;;0.77;0.40;;;;;;;;;;5022449;28;20095;-68
2023/01/09 11:43:55;;;;;;;0.93;0.35;;;;;;;;;;5039834;28;20044;-68
2023/01/09 11:46:36;;;;;;;1.40;0.40;;;;;;;;;;5035182;28;21704;-68
2023/01/09 11:49:05;;;;;;;0.63;0.30;;;;;;;;;;5025287;28;20036;-68
2023/01/09 11:51:33;;;;;;;1.33;0.40;;;;;;;;;;5038589;28;20510;-69
2023/01/09 11:54:18;;;;;;;1.27;0.50;;;;;;;;;;5022913;28;20163;-67
2023/01/09 11:56:46;;;;;;;1.83;0.40;;;;;;;;;;5039712;28;20041;-68
2023/01/09 11:59:32;;;;;;;2.35;0.50;;;;;;;;;;5037719;28;20184;-68
2023/01/09 12:02:13;;;;;;;1.20;0.40;;;;;;;;;;5060141;28;20113;-69
2023/01/09 12:04:58;;;;;;;1.50;0.50;;;;;;;;;;5060585;28;20041;-67
2023/01/09 12:07:30;;;;;;;1.10;0.40;;;;;;;;;;5064098;28;20677;-67
2023/01/09 12:10:05;;;;;;;1.52;0.35;;;;;;;;;;5065126;28;20495;-68
2023/01/09 12:12:40;;;;;;;0.75;0.40;;;;;;;;;;5065947;28;20123;-67
2023/01/09 12:15:14;;;;;;;0.85;0.40;;;;;;;;;;5066757;28;20036;-67
2023/01/09 12:18:22;;;;;;;1.02;0.40;;;;;;;;;;5065275;28;20711;-67
2023/01/09 12:21:10;;;;;;;0.60;0.40;;;;;;;;;;4982477;28;20117;-68
2023/01/09 12:23:54;;;;;;;0.90;0.40;;;;;;;;;;5001962;28;20073;-67
2023/01/09 12:26:21;;;;;;;2.05;0.50;;;;;;;;;;5017822;28;20127;-67
2023/01/09 12:28:55;;;;;;;0.90;0.40;;;;;;;;;;5002479;28;21999;-67
2023/01/09 12:31:21;;;;;;;;;;;;;;;;;;5017961;28;20069;-66
2023/01/09 12:33:50;;;;;;;0.85;0.40;;;;;;;;;;4992304;28;20369;-67
2023/01/09 12:36:21;;;;;;;0.63;0.30;;;;;;;;;;4983206;28;20030;-67
2023/01/09 12:39:10;;;;;;;1.50;0.50;;;;;;;;;;4988342;28;20064;-66
2023/01/09 12:41:44;;;;;;;1.17;0.40;;;;;;;;;;5001366;28;20156;-67
2023/01/09 12:44:17;;;;;;;0.45;0.30;;;;;;;;;;4999425;28;20082;-67
2023/01/09 12:46:52;;;;;;;1.15;0.40;;;;;;;;;;5000440;28;20070;-68
2023/01/09 12:49:21;;;;;;;1.20;0.50;;;;;;;;;;5001396;28;21723;-71
2023/01/09 12:51:54;;;;;;;0.93;0.40;;;;;;;;;;5021777;28;20094;-67
2023/01/09 12:54:33;;;;;;;0.52;0.30;;;;;;;;;;5046454;28;20056;-65
2023/01/09 12:57:11;;;;;;;1.42;0.50;;;;;;;;;;5044670;28;20048;-66
2023/01/09 12:59:41;;;;;;;1.40;0.50;;;;;;;;;;5047548;28;20048;-66
2023/01/09 13:02:43;;;;;;;0.75;0.30;;;;;;;;;;5048122;28;20120;-68
2023/01/09 13:05:15;;;;;;;1.25;0.40;;;;;;;;;;5013645;28;20033;-65
2023/01/09 13:07:49;;;;;;;2.88;0.60;;;;;;;;;;5039442;28;20444;-66
2023/01/09 13:10:26;;;;;;;1.08;0.50;;;;;;;;;;5022685;28;20060;-67
2023/01/09 13:12:54;;;;;;;0.80;0.30;;;;;;;;;;5032490;28;20367;-68
2023/01/09 13:15:32;;;;;;;1.38;0.40;;;;;;;;;;5028416;28;20099;-67
2023/01/09 13:18:06;;;;;;;2.85;0.60;;;;;;;;;;5026214;28;20170;-67
2023/01/09 13:20:36;;;;;;;1.35;0.40;;;;;;;;;;5040916;28;20040;-67
2023/01/09 13:23:29;;;;;;;1.25;0.40;;;;;;;;;;5047520;28;20172;-67
2023/01/09 13:25:56;;;;;;;1.33;0.40;;;;;;;;;;5048289;28;20119;-67
2023/01/09 13:28:27;;;;;;;1.85;0.50;;;;;;;;;;5047590;28;20036;-67
2023/01/09 13:31:12;;;;;;;2.28;0.40;;;;;;;;;;5048442;28;20045;-67
2023/01/09 13:33:41;;;;;;;2.22;0.60;;;;;;;;;;5048746;28;20044;-65
2023/01/09 13:36:07;;;;;;;1.75;0.50;;;;;;;;;;5047864;28;20040;-66
2023/01/09 13:38:38;;;;;;;1.90;0.50;;;;;;;;;;5049919;28;20061;-66
2023/01/09 13:43:59;;;;;;;3.78;0.80;;;;;;;;;;5068650;28;20432;-68
2023/01/09 13:46:38;;;;;;;2.40;0.70;;;;;;;;;;5069385;28;20036;-68
2023/01/09 13:49:07;;;;;;;1.45;0.50;;;;;;;;;;5069662;28;20043;-67
2023/01/09 13:51:43;;;;;;;1.70;0.50;;;;;;;;;;5064746;28;20036;-67
2023/01/09 13:54:10;;;;;;;1.77;0.60;;;;;;;;;;5066997;28;20072;-67
2023/01/09 13:56:55;;;;;;;2.70;0.60;;;;;;;;;;5045328;28;20104;-70
2023/01/09 13:59:28;;;;;;;2.38;0.70;;;;;;;;;;5062497;28;20082;-67
2023/01/09 14:01:54;;;;;;;1.70;0.50;;;;;;;;;;5036123;28;20045;-67
2023/01/09 14:04:21;;;;;;;2.55;0.80;;;;;;;;;;5027201;28;20043;-67
2023/01/09 14:07:06;;;;;;;2.40;0.52;;;;;;;;;;5024649;28;20087;-68
2023/01/09 14:09:36;;;;;;;3.15;0.70;;;;;;;;;;5027247;28;20056;-67
2023/01/09 14:12:04;;;;;;;3.35;0.60;;;;;;;;;;5027243;28;20115;-66
2023/01/09 14:14:32;;;;;;;1.48;0.57;;;;;;;;;;5038633;28;20041;-66
2023/01/09 14:16:59;;;;;;;1.70;0.55;;;;;;;;;;5031256;28;20151;-69
2023/01/09 14:19:39;;;;;;;3.05;0.77;;;;;;;;;;5016023;28;20069;-67
2023/01/09 14:22:06;;;;;;;3.05;0.60;;;;;;;;;;5039020;28;20897;-66
2023/01/09 14:24:45;;;;;;;2.83;0.65;;;;;;;;;;5026382;28;20053;-67
2023/01/09 14:27:30;;;;;;;2.30;0.60;;;;;;;;;;5025566;28;20060;-67
2023/01/09 14:30:17;;;;;;;2.22;0.52;;;;;;;;;;5032820;28;20042;-67
2023/01/09 14:32:44;;;;;;;1.77;0.55;;;;;;;;;;5025507;28;20053;-68
2023/01/09 14:35:16;;;;;;;3.28;0.82;;;;;;;;;;5029986;28;20124;-68
2023/01/09 14:37:43;;;;;;;2.83;0.80;;;;;;;;;;5025931;28;20048;-68
2023/01/09 14:40:21;;;;;;;1.23;0.50;;;;;;;;;;5027465;28;20065;-69
2023/01/09 14:42:51;;;;;;;3.28;0.80;;;;;;;;;;5024885;28;20037;-69
2023/01/09 14:45:20;;;;;;;2.33;0.73;;;;;;;;;;5024182;28;20076;-68
2023/01/09 14:47:50;;;;;;;1.77;0.60;;;;;;;;;;5023932;28;20045;-67
2023/01/09 14:50:36;;;;;;;1.88;0.60;;;;;;;;;;5038136;28;20036;-65
2023/01/09 14:53:09;;;;;;;1.98;0.68;;;;;;;;;;5024234;28;20037;-67
2023/01/09 14:55:52;;;;;;;2.00;0.70;;;;;;;;;;5025342;28;20481;-70
2023/01/09 14:58:24;;;;;;;2.35;0.90;;;;;;;;;;5024244;28;20105;-67
2023/01/09 15:01:02;;;;;;;2.20;0.70;;;;;;;;;;5026006;28;20044;-68
2023/01/09 15:03:57;;;;;;;2.80;0.63;;;;;;;;;;5031946;28;20083;-67
2023/01/09 15:06:32;;;;;;;1.88;0.60;;;;;;;;;;5030598;28;20610;-66
2023/01/09 15:09:17;;;;;;;2.30;0.75;;;;;;;;;;5033679;28;20048;-67
2023/01/09 15:11:44;;;;;;;2.50;0.73;;;;;;;;;;5031660;28;20045;-66
2023/01/09 15:14:26;;;;;;;2.65;0.80;;;;;;;;;;5027160;28;20083;-67
2023/01/09 15:16:53;;;;;;;2.78;0.93;;;;;;;;;;5031502;28;20075;-68